Time;durP1;ratioP1;P1;durP2;ratioP2;P2;SDS_P1;SDS_P2;PMS_P1;PMS_P2;Temp;Humidity;BMP_temperature;BMP_pressure;BME280_temperature;BME280_humidity;BME280_pressure;Samples;Min_cycle;Max_cycle;Signal;HPM_P1;HPM_P2
2022/01/28 00:04:47;;;;;;;;;39.50;17.00;;;;;7.23;73.98;103167.00;5071876;27;45393;-77
2022/01/28 00:07:12;;;;;;;;;59.75;39.25;;;;;7.00;73.81;103134.06;5074899;27;45535;-78
2022/01/28 00:09:38;;;;;;;;;67.75;42.50;;;;;7.22;73.68;103183.66;5073668;28;45547;-78
2022/01/28 00:12:03;;;;;;;;;56.75;40.25;;;;;7.22;74.33;103186.31;5073146;27;45995;-78
2022/01/28 00:14:41;;;;;;;;;42.50;34.75;;;;;7.21;74.24;103192.44;5072943;27;45798;-78
2022/01/28 00:36:45;;;;;;;;;18.50;14.50;;;;;6.71;74.23;103117.75;5072783;28;45374;-78
2022/01/28 00:39:11;;;;;;;;;19.50;14.00;;;;;6.98;74.38;103178.81;5072677;27;45301;-77
2022/01/28 00:41:36;;;;;;;;;20.75;14.00;;;;;7.15;74.73;103207.25;5072175;28;45509;-77
2022/01/28 00:44:02;;;;;;;;;19.00;10.00;;;;;7.05;74.42;103185.09;5072416;28;45981;-78
2022/01/28 00:46:27;;;;;;;;;7.50;7.50;;;;;6.97;74.72;103176.16;5072261;27;45481;-78
2022/01/28 00:48:53;;;;;;;;;21.00;14.25;;;;;6.87;74.35;103166.31;5074471;28;45508;-78
2022/01/28 00:51:18;;;;;;;;;17.50;13.00;;;;;7.13;74.73;103208.94;5072946;27;45434;-78
2022/01/28 00:53:43;;;;;;;;;15.00;13.50;;;;;6.84;74.60;103164.50;5072811;27;45432;-79
2022/01/28 00:56:09;;;;;;;;;17.75;13.25;;;;;7.10;74.50;103215.03;5076367;27;45462;-79
2022/01/28 00:58:34;;;;;;;;;19.75;15.25;;;;;7.09;73.93;103220.25;5076431;27;45462;-76
2022/01/28 01:00:59;;;;;;;;;21.00;15.75;;;;;6.80;74.01;103173.19;5076325;28;45474;-76
2022/01/28 01:03:25;;;;;;;;;18.75;15.00;;;;;7.05;74.57;103214.94;5076334;27;45910;-76
2022/01/28 01:05:50;;;;;;;;;14.25;7.50;;;;;7.05;74.79;103224.59;5075809;27;45447;-76
2022/01/28 01:08:16;;;;;;;;;12.50;9.00;;;;;7.03;74.41;103231.59;5076510;27;45278;-76
2022/01/28 01:10:42;;;;;;;;;12.75;10.00;;;;;6.94;74.18;103226.09;5073667;28;45364;-76
2022/01/28 01:13:07;;;;;;;;;19.25;13.50;;;;;6.92;75.12;103218.19;5077745;28;47754;-76
2022/01/28 01:15:38;;;;;;;;;16.25;14.25;;;;;6.95;74.53;103218.25;5075566;27;45446;-76
2022/01/28 01:23:33;;;;;;;;;26.00;20.25;;;;;6.87;74.58;103211.06;5074476;27;46018;-76
2022/01/28 01:26:08;;;;;;;;;42.00;25.75;;;;;6.96;73.89;103227.91;5076125;27;45472;-75
2022/01/28 01:28:38;;;;;;;;;39.00;30.00;;;;;7.01;74.77;103241.19;5075403;27;45557;-75
2022/01/28 01:31:11;;;;;;;;;38.25;25.25;;;;;7.00;75.00;103245.56;5075593;28;45590;-75
2022/01/28 01:33:46;;;;;;;;;36.25;27.00;;;;;6.99;74.30;103249.03;5076093;28;45371;-75
2022/01/28 01:36:11;;;;;;;;;39.25;27.75;;;;;6.74;74.30;103208.19;5075519;28;45442;-75
2022/01/28 01:38:39;;;;;;;;;28.00;22.75;;;;;6.89;73.59;103230.41;5075902;28;45333;-75
2022/01/28 01:41:11;;;;;;;;;36.50;25.00;;;;;6.91;74.26;103244.47;5074687;27;45465;-75
2022/01/28 01:44:01;;;;;;;;;34.00;30.25;;;;;6.73;73.85;103224.81;5075156;27;45536;-76
2022/01/28 01:54:26;;;;;;;;;27.25;19.75;;;;;6.70;73.15;103255.44;5074840;27;45417;-77
2022/01/28 01:56:54;;;;;;;;;17.75;17.75;;;;;6.64;74.03;103253.56;5073828;28;45335;-76
2022/01/28 01:59:20;;;;;;;;;22.75;18.75;;;;;6.44;73.24;103218.94;5076073;28;45356;-76
2022/01/28 02:01:45;;;;;;;;;19.50;13.25;;;;;6.56;73.81;103249.88;5073671;27;45399;-76
2022/01/28 02:04:11;;;;;;;;;25.00;17.25;;;;;6.52;73.65;103253.28;5075872;28;47023;-77
2022/01/28 02:06:38;;;;;;;;;11.50;11.50;;;;;6.40;73.77;103239.84;5074903;28;45455;-76
2022/01/28 02:09:04;;;;;;;;;18.00;14.75;;;;;6.41;73.43;103257.41;5075113;28;45472;-76
2022/01/28 02:11:30;;;;;;;;;22.75;18.50;;;;;6.17;73.01;103226.16;5073454;27;45704;-76
2022/01/28 02:13:55;;;;;;;;;21.00;16.25;;;;;6.25;73.61;103254.41;5075293;28;47034;-77
2022/01/28 02:16:21;;;;;;;;;22.50;14.75;;;;;6.14;73.55;103232.22;5074539;28;45637;-76
2022/01/28 02:18:47;;;;;;;;;18.25;14.00;;;;;5.95;73.62;103209.00;5069536;28;45377;-76
2022/01/28 02:21:15;;;;;;;;;23.00;18.00;;;;;6.20;72.64;103252.53;5071614;28;47723;-76
2022/01/28 02:23:43;;;;;;;;;24.00;19.25;;;;;6.16;73.05;103258.59;5074650;27;46371;-76
2022/01/28 02:26:14;;;;;;;;;21.00;19.50;;;;;5.85;73.41;103208.75;5072705;28;45547;-76
2022/01/28 02:28:41;;;;;;;;;17.25;17.25;;;;;5.96;73.38;103231.78;5074582;28;45374;-76
2022/01/28 02:31:06;;;;;;;;;19.25;17.75;;;;;5.92;73.71;103231.69;5076547;27;45445;-76
2022/01/28 02:33:32;;;;;;;;;22.75;18.25;;;;;5.89;74.06;103228.97;5074663;27;46052;-76
2022/01/28 02:36:04;;;;;;;;;28.50;19.25;;;;;5.94;73.90;103249.25;5074650;28;45460;-76
2022/01/28 02:38:30;;;;;;;;;23.75;19.00;;;;;6.00;73.43;103267.81;5073921;28;45390;-76
2022/01/28 02:40:58;;;;;;;;;22.25;19.00;;;;;5.86;73.98;103246.41;5073971;27;45544;-76
2022/01/28 02:45:52;;;;;;;;;27.75;18.75;;;;;5.50;73.66;103188.53;5075961;28;45447;-76
2022/01/28 02:48:25;;;;;;;;;18.25;16.25;;;;;5.85;73.78;103253.44;5074434;27;45497;-76
2022/01/28 02:51:14;;;;;;;;;17.75;16.75;;;;;5.53;73.76;103199.13;5074227;27;45465;-77
2022/01/28 02:53:52;;;;;;;;;23.25;18.00;;;;;5.79;74.07;103247.09;5073940;27;45303;-76
2022/01/28 02:56:21;;;;;;;;;27.00;21.25;;;;;5.76;73.34;103247.91;5073677;27;45561;-76
2022/01/28 02:58:47;;;;;;;;;19.25;18.00;;;;;5.59;74.29;103222.94;5074791;27;50043;-76
2022/01/28 03:01:15;;;;;;;;;22.25;19.25;;;;;5.57;73.80;103229.91;5075722;28;45241;-76
2022/01/28 03:03:45;;;;;;;;;30.00;19.75;;;;;5.83;74.26;103275.25;5073252;28;46146;-76
2022/01/28 03:06:13;;;;;;;;;23.25;16.50;;;;;5.81;74.17;103274.31;5072774;28;45481;-76
2022/01/28 03:08:43;;;;;;;;;23.25;19.25;;;;;5.82;74.74;103281.34;5074024;27;45515;-76
2022/01/28 03:16:35;;;;;;;;;23.25;19.75;;;;;5.73;74.40;103265.34;5073537;28;45390;-77
2022/01/28 03:19:19;;;;;;;;;24.00;15.75;;;;;5.75;74.37;103272.41;5075319;28;45362;-76
2022/01/28 03:21:53;;;;;;;;;20.75;19.75;;;;;5.72;74.14;103280.22;5074342;28;45414;-76
2022/01/28 03:24:19;;;;;;;;;29.00;19.25;;;;;5.15;73.49;103194.66;5069318;28;47202;-76
2022/01/28 03:26:46;;;;;;;;;32.25;21.00;;;;;5.37;73.54;103239.88;5065117;28;45482;-76
2022/01/28 03:29:12;;;;;;;;;25.50;18.25;;;;;5.62;73.48;103283.47;5074280;27;45453;-76
2022/01/28 03:31:38;;;;;;;;;27.50;20.50;;;;;5.61;74.01;103292.16;5073837;27;45580;-76
2022/01/28 03:34:04;;;;;;;;;25.75;18.00;;;;;5.64;74.39;103305.38;5074160;28;48223;-76
2022/01/28 03:36:29;;;;;;;;;24.75;19.00;;;;;5.51;74.03;103282.28;5073940;28;45467;-76
2022/01/28 03:38:55;;;;;;;;;25.00;16.25;;;;;5.62;73.70;103305.38;5073707;28;45453;-76
2022/01/28 03:41:23;;;;;;;;;23.00;14.75;;;;;5.38;73.75;103276.69;5073498;27;45754;-78
2022/01/28 03:43:49;;;;;;;;;17.25;16.50;;;;;5.55;74.32;103305.16;5073693;27;45473;-75
2022/01/28 03:46:15;;;;;;;;;22.25;21.00;;;;;5.54;73.51;103306.88;5075411;27;45627;-78
2022/01/28 03:48:41;;;;;;;;;24.00;20.75;;;;;5.58;73.67;103321.00;5072717;28;45458;-77
2022/01/28 03:51:08;;;;;;;;;29.75;18.75;;;;;5.49;73.30;103302.34;5073148;27;45562;-77
2022/01/28 03:53:34;;;;;;;;;28.25;25.50;;;;;5.35;73.80;103289.72;5073327;28;45510;-76
2022/01/28 03:55:59;;;;;;;;;31.00;23.75;;;;;5.40;74.28;103303.88;5073263;28;45523;-77
2022/01/28 03:58:26;;;;;;;;;24.25;20.25;;;;;5.13;73.85;103261.09;5074373;28;45530;-76
2022/01/28 04:00:53;;;;;;;;;31.75;24.25;;;;;5.54;74.22;103333.16;5074702;28;45506;-76
2022/01/28 04:13:52;;;;;;;;;29.25;24.25;;;;;5.53;73.96;103335.72;5066742;28;45280;-76
2022/01/28 04:18:57;;;;;;;;;31.25;23.50;;;;;5.55;74.48;103341.91;5072112;28;45463;-76
2022/01/28 04:21:22;;;;;;;;;31.75;26.50;;;;;5.55;74.80;103355.94;5072913;28;45468;-76
2022/01/28 04:23:48;;;;;;;;;31.25;27.25;;;;;5.46;74.54;103343.44;5071147;28;47148;-77
2022/01/28 04:26:13;;;;;;;;;35.25;26.75;;;;;5.33;75.40;103306.28;5073568;27;45471;-78
2022/01/28 04:28:39;;;;;;;;;35.00;26.25;;;;;5.65;75.72;103358.00;5071581;27;45400;-76
2022/01/28 04:31:04;;;;;;;;;27.25;23.25;;;;;5.65;75.18;103359.75;5075070;28;45478;-76
2022/01/28 04:33:30;;;;;;;;;39.25;29.00;;;;;5.55;75.23;103342.81;5072527;27;45896;-76
2022/01/28 04:35:56;;;;;;;;;31.75;24.50;;;;;5.62;75.38;103350.03;5071059;28;45576;-76
2022/01/28 04:38:39;;;;;;;;;27.00;19.25;;;;;5.54;75.38;103330.53;5071228;27;45465;-77
2022/01/28 04:41:25;;;;;;;;;21.75;17.50;;;;;5.55;75.33;103331.41;5073050;27;45303;-77
2022/01/28 04:43:58;;;;;;;;;28.25;22.50;;;;;5.60;75.75;103337.69;5067316;28;47384;-77
2022/01/28 04:46:41;;;;;;;;;25.25;21.75;;;;;5.63;75.25;103367.56;5073219;27;45656;-77
2022/01/28 04:49:16;;;;;;;;;27.25;22.00;;;;;5.52;74.52;103339.22;5074350;28;45240;-77
2022/01/28 04:57:04;;;;;;;;;26.75;22.50;;;;;5.68;74.63;103365.97;5072507;27;45497;-76
2022/01/28 05:07:29;;;;;;;;;28.25;22.75;;;;;5.46;74.87;103346.06;5069920;28;45434;-75
2022/01/28 05:13:12;;;;;;;;;26.75;24.50;;;;;5.62;74.39;103375.41;5072638;28;45327;-75
2022/01/28 05:26:34;;;;;;;;;26.50;21.50;;;;;5.46;74.37;103361.81;5066502;28;46095;-76
2022/01/28 05:29:01;;;;;;;;;23.50;21.00;;;;;5.62;74.70;103394.69;5068258;28;45525;-76
2022/01/28 05:31:26;;;;;;;;;32.75;23.00;;;;;5.37;74.61;103351.06;5068493;28;45344;-76
2022/01/28 05:33:52;;;;;;;;;32.50;22.25;;;;;5.49;75.35;103371.53;5066655;28;45930;-76
2022/01/28 05:36:18;;;;;;;;;27.00;24.50;;;;;5.35;74.47;103354.47;5068813;28;45939;-76
2022/01/28 05:38:43;;;;;;;;;24.00;22.50;;;;;5.40;74.34;103366.91;5056907;28;45372;-76
2022/01/28 05:41:09;;;;;;;;;30.75;25.50;;;;;4.92;74.67;103288.50;5070228;28;45634;-76
2022/01/28 05:43:34;;;;;;;;;29.50;26.00;;;;;5.41;74.38;103379.19;5073698;28;45636;-76
2022/01/28 05:46:00;;;;;;;;;26.25;24.25;;;;;5.37;74.55;103376.44;5070505;28;45517;-76
2022/01/28 05:48:25;;;;;;;;;27.75;22.25;;;;;5.38;75.18;103379.13;5069790;28;45410;-77
2022/01/28 05:50:50;;;;;;;;;30.25;26.25;;;;;5.49;75.44;103387.28;5057215;28;45397;-76
2022/01/28 05:53:16;;;;;;;;;28.00;24.25;;;;;5.60;75.08;103408.63;5069954;28;45419;-76
2022/01/28 05:55:42;;;;;;;;;28.75;22.25;;;;;5.51;74.78;103389.97;5074400;28;46392;-76
2022/01/28 05:58:08;;;;;;;;;23.50;20.00;;;;;5.29;75.24;103347.31;5071265;28;45591;-76
2022/01/28 06:00:33;;;;;;;;;25.75;22.25;;;;;5.56;75.36;103393.59;5074761;28;45521;-76
2022/01/28 06:02:59;;;;;;;;;27.00;26.50;;;;;5.65;74.90;103407.03;5075409;28;45744;-77
2022/01/28 06:05:30;;;;;;;;;25.75;24.25;;;;;5.59;74.71;103404.19;5074940;27;47386;-76
2022/01/28 06:07:59;;;;;;;;;31.25;24.75;;;;;5.63;74.74;103411.34;5074946;28;45493;-76
2022/01/28 06:10:25;;;;;;;;;28.00;26.00;;;;;5.65;74.99;103413.16;5074012;28;45474;-77
2022/01/28 06:12:51;;;;;;;;;23.75;20.50;;;;;5.41;75.38;103362.53;5077120;28;45404;-77
2022/01/28 06:15:16;;;;;;;;;36.25;26.50;;;;;5.56;75.06;103383.09;5075027;27;45468;-76
2022/01/28 06:17:43;;;;;;;;;22.75;21.25;;;;;5.69;75.30;103408.88;5074504;28;45319;-76
2022/01/28 06:20:13;;;;;;;;;28.25;27.50;;;;;5.69;75.71;103412.41;5075711;27;47942;-76
2022/01/28 06:22:40;;;;;;;;;34.00;27.50;;;;;5.69;75.50;103411.50;5075212;28;45337;-77
2022/01/28 06:25:07;;;;;;;;;39.75;28.50;;;;;5.72;75.57;103414.22;5076974;28;45987;-75
2022/01/28 06:27:33;;;;;;;;;44.00;30.50;;;;;5.54;75.48;103390.06;5072567;27;45262;-76
2022/01/28 06:29:58;;;;;;;;;37.50;32.25;;;;;5.64;74.70;103406.13;5075340;27;45283;-76
2022/01/28 06:32:24;;;;;;;;;28.00;22.25;;;;;5.66;74.66;103412.31;5073538;28;45406;-76
2022/01/28 06:34:49;;;;;;;;;41.25;31.75;;;;;5.73;75.29;103417.75;5073070;27;45504;-76
2022/01/28 06:37:14;;;;;;;;;38.75;29.25;;;;;5.64;74.65;103406.13;5091889;27;45879;-75
2022/01/28 06:39:40;;;;;;;;;46.50;37.75;;;;;5.54;74.29;103400.56;5075301;28;45492;-74
2022/01/28 06:42:06;;;;;;;;;49.25;37.75;;;;;5.66;75.08;103419.31;5074731;27;45303;-75
2022/01/28 06:44:31;;;;;;;;;32.75;32.50;;;;;5.45;74.58;103391.56;5074659;27;46159;-76
2022/01/28 06:46:57;;;;;;;;;44.75;38.00;;;;;5.51;74.99;103397.84;5073890;27;45550;-76
2022/01/28 06:49:23;;;;;;;;;44.25;36.00;;;;;5.21;74.30;103351.47;5074353;28;45326;-76
2022/01/28 06:51:48;;;;;;;;;47.00;38.75;;;;;5.61;74.52;103419.16;5074748;28;45595;-76
2022/01/28 06:54:13;;;;;;;;;38.75;37.50;;;;;5.56;75.14;103415.53;5074054;27;46609;-76
2022/01/28 06:56:39;;;;;;;;;49.00;39.00;;;;;5.28;75.40;103366.53;5074579;28;45947;-75
2022/01/28 06:59:04;;;;;;;;;42.50;34.50;;;;;5.20;74.20;103362.78;5074431;27;45449;-75
2022/01/28 07:01:29;;;;;;;;;42.00;37.75;;;;;5.30;74.75;103378.00;5073959;27;45445;-77
2022/01/28 07:03:55;;;;;;;;;48.25;39.50;;;;;5.56;74.56;103431.28;5076256;28;46177;-76
2022/01/28 07:06:22;;;;;;;;;54.00;39.33;;;;;5.42;74.25;103412.50;5074229;27;45469;-76
2022/01/28 07:08:47;;;;;;;;;35.50;32.00;;;;;5.41;74.41;103421.22;5074326;27;45447;-76
2022/01/28 07:11:13;;;;;;;;;40.00;33.50;;;;;5.42;74.09;103414.22;5074347;27;45498;-77
2022/01/28 07:13:38;;;;;;;;;42.50;36.25;;;;;5.42;74.39;103422.09;5073736;27;47751;-77
2022/01/28 07:16:04;;;;;;;;;39.25;33.75;;;;;5.52;73.86;103452.16;5075052;28;45464;-77
2022/01/28 07:18:29;;;;;;;;;34.25;32.00;;;;;5.17;74.27;103400.34;5072672;28;45225;-76
2022/01/28 07:20:55;;;;;;;;;37.50;35.25;;;;;4.99;74.41;103374.41;5073914;27;45483;-76
2022/01/28 07:23:20;;;;;;;;;35.75;28.50;;;;;5.30;74.41;103432.25;5072470;28;48189;-76
2022/01/28 07:25:46;;;;;;;;;41.00;33.25;;;;;5.52;74.13;103466.19;5072048;28;45677;-76
2022/01/28 07:28:11;;;;;;;;;30.75;30.00;;;;;5.34;74.13;103442.00;5074818;28;46182;-76
2022/01/28 07:30:36;;;;;;;;;35.25;31.75;;;;;5.26;74.41;103440.84;5073620;27;45581;-76
2022/01/28 07:33:05;;;;;;;;;28.75;22.50;;;;;5.25;75.26;103445.22;5073716;27;45710;-76
2022/01/28 07:35:31;;;;;;;;;38.50;29.25;;;;;5.44;73.99;103480.81;5073573;28;45585;-76
2022/01/28 07:37:56;;;;;;;;;41.25;23.25;;;;;5.35;75.13;103480.53;5075074;27;45694;-76
2022/01/28 07:40:21;;;;;;;;;41.00;28.50;;;;;5.49;74.37;103507.22;5090500;27;45570;-76
2022/01/28 07:42:47;;;;;;;;;32.75;30.25;;;;;5.08;74.34;103433.31;5074749;28;46103;-76
2022/01/28 07:45:15;;;;;;;;;36.50;29.25;;;;;5.49;73.72;103513.38;5072970;27;45541;-76
2022/01/28 07:47:41;;;;;;;;;33.25;28.00;;;;;5.45;74.26;103520.25;5073706;27;45484;-77
2022/01/28 07:50:08;;;;;;;;;36.75;31.25;;;;;5.47;75.52;103515.03;5089718;27;45408;-76
2022/01/28 07:52:35;;;;;;;;;36.75;30.50;;;;;5.29;74.57;103483.84;5073831;27;45443;-76
2022/01/28 07:55:00;;;;;;;;;30.25;26.50;;;;;5.26;74.43;103488.13;5074084;28;45493;-76
2022/01/28 07:57:25;;;;;;;;;41.75;33.50;;;;;5.25;74.19;103495.09;5073299;27;45574;-76
2022/01/28 07:59:51;;;;;;;;;25.25;23.25;;;;;5.43;75.56;103519.31;5071334;28;45507;-76
2022/01/28 08:02:16;;;;;;;;;42.50;28.50;;;;;5.37;75.19;103499.84;5086875;27;45463;-77
2022/01/28 08:04:42;;;;;;;;;31.25;30.50;;;;;5.32;74.97;103494.44;5073415;27;45540;-76
2022/01/28 08:07:07;;;;;;;;;28.75;22.50;;;;;5.29;75.35;103473.34;5072921;28;45367;-76
2022/01/28 08:09:33;;;;;;;;;34.50;24.75;;;;;5.55;75.23;103526.69;5072602;28;45824;-77
2022/01/28 08:11:58;;;;;;;;;42.75;31.25;;;;;5.51;74.63;103511.69;5072872;27;46494;-77
2022/01/28 08:14:24;;;;;;;;;43.25;33.00;;;;;5.60;74.78;103513.72;5072503;27;45634;-77
2022/01/28 08:16:50;;;;;;;;;36.75;34.00;;;;;5.62;75.35;103526.06;5072781;27;45457;-76
2022/01/28 08:19:16;;;;;;;;;40.00;37.50;;;;;5.58;75.16;103518.91;5075231;27;45211;-77
2022/01/28 08:21:41;;;;;;;;;43.25;33.25;;;;;5.50;74.76;103496.78;5072057;28;46333;-77
2022/01/28 08:24:06;;;;;;;;;43.00;37.00;;;;;5.51;75.62;103490.69;5073429;27;45599;-77
2022/01/28 08:26:32;;;;;;;;;39.50;34.75;;;;;5.54;75.50;103497.75;5073531;27;45526;-77
2022/01/28 08:28:57;;;;;;;;;42.25;38.25;;;;;5.59;75.26;103502.31;5072836;27;45338;-77
2022/01/28 08:31:22;;;;;;;;;43.50;36.50;;;;;5.72;74.85;103511.44;5074404;27;45476;-76
2022/01/28 08:33:48;;;;;;;;;46.00;36.75;;;;;5.63;75.56;103492.78;5074218;28;45496;-77
2022/01/28 08:36:13;;;;;;;;;43.00;32.50;;;;;5.84;75.41;103529.31;5072951;27;45404;-77
2022/01/28 08:38:46;;;;;;;;;54.75;41.50;;;;;5.81;74.84;103531.84;5070353;28;45516;-77
2022/01/28 08:41:13;;;;;;;;;39.25;35.25;;;;;5.89;75.73;103535.63;5072740;27;45494;-77
2022/01/28 08:43:39;;;;;;;;;44.75;37.75;;;;;5.61;75.07;103481.31;5071832;27;45527;-77
2022/01/28 08:46:05;;;;;;;;;45.50;36.75;;;;;5.80;75.85;103523.09;5073361;28;45491;-77
2022/01/28 08:48:30;;;;;;;;;43.75;32.50;;;;;5.73;75.44;103494.81;5073199;28;45401;-80
2022/01/28 08:50:56;;;;;;;;;38.00;29.25;;;;;6.03;75.82;103536.94;5073051;27;45596;-76
2022/01/28 08:53:21;;;;;;;;;41.00;35.50;;;;;6.08;75.21;103544.94;5072647;28;45398;-77
2022/01/28 08:55:47;;;;;;;;;40.25;29.25;;;;;6.02;75.34;103516.75;5073146;28;45477;-77
2022/01/28 08:58:13;;;;;;;;;45.50;33.75;;;;;6.22;75.83;103551.50;5087280;27;45254;-77
2022/01/28 09:00:38;;;;;;;;;44.00;34.00;;;;;6.25;75.61;103537.56;5071262;28;45399;-77
2022/01/28 09:03:04;;;;;;;;;39.75;35.75;;;;;6.40;74.85;103550.25;5072327;28;45454;-77
2022/01/28 09:05:29;;;;;;;;;43.50;31.00;;;;;5.94;75.24;103459.53;5071333;28;45608;-77
2022/01/28 09:07:55;;;;;;;;;32.50;25.50;;;;;6.23;75.47;103498.06;5072867;27;45231;-77
2022/01/28 09:10:25;;;;;;;;;38.50;31.50;;;;;6.31;75.48;103496.53;5069098;28;46046;-77
2022/01/28 09:15:33;;;;;;;;;37.00;34.00;;;;;6.35;74.69;103484.34;5074512;27;45278;-77
2022/01/28 09:18:01;;;;;;;;;38.00;30.25;;;;;6.46;74.84;103495.16;5076521;27;45480;-77
2022/01/28 09:20:32;;;;;;;;;40.50;30.00;;;;;6.82;74.26;103540.91;5074951;27;45929;-77
2022/01/28 09:22:59;;;;;;;;;45.75;37.50;;;;;6.88;74.61;103518.19;5076248;27;46123;-77
2022/01/28 09:25:25;;;;;;;;;42.25;32.50;;;;;7.08;74.68;103527.47;5077038;27;45404;-77
2022/01/28 09:27:50;;;;;;;;;41.00;30.50;;;;;7.22;74.29;103536.63;5077045;28;45542;-77
2022/01/28 09:30:16;;;;;;;;;38.75;31.75;;;;;7.25;73.51;103509.47;5075967;27;45489;-77
2022/01/28 09:32:41;;;;;;;;;38.75;34.00;;;;;7.47;73.28;103516.09;5076453;27;45511;-77
2022/01/28 09:35:07;;;;;;;;;41.25;30.50;;;;;7.43;72.63;103466.84;5076074;27;45466;-77
2022/01/28 09:37:34;;;;;;;;;38.00;31.75;;;;;7.78;72.12;103511.53;5074175;28;45527;-77
2022/01/28 09:39:59;;;;;;;;;38.75;27.00;;;;;7.91;71.73;103518.84;5077412;28;46172;-77
2022/01/28 09:42:29;;;;;;;;;30.00;26.75;;;;;8.08;72.01;103528.00;5073879;28;45768;-77
2022/01/28 09:44:55;;;;;;;;;37.00;27.00;;;;;8.12;71.23;103514.03;5075661;27;45461;-77
2022/01/28 09:47:21;;;;;;;;;39.50;30.00;;;;;8.49;71.11;103542.91;5075987;27;45449;-77
2022/01/28 09:49:47;;;;;;;;;30.25;28.25;;;;;8.72;70.73;103544.22;5075790;27;45307;-77
2022/01/28 09:52:12;;;;;;;;;36.25;32.00;;;;;8.68;70.01;103504.53;5077937;27;45284;-77
2022/01/28 09:54:39;;;;;;;;;42.25;31.75;;;;;9.12;70.25;103544.94;5075519;28;45307;-77
2022/01/28 09:57:08;;;;;;;;;44.25;32.25;;;;;9.32;70.00;103537.31;5075549;27;45506;-77
2022/01/28 09:59:34;;;;;;;;;32.00;27.50;;;;;9.35;69.74;103515.31;5075336;27;45990;-77
2022/01/28 10:01:59;;;;;;;;;35.75;28.00;;;;;9.44;68.79;103507.53;5074152;28;45460;-77
2022/01/28 10:04:25;;;;;;;;;31.75;27.75;;;;;9.51;68.68;103512.06;5076457;27;45270;-77
2022/01/28 10:06:51;;;;;;;;;29.00;24.25;;;;;9.76;68.72;103534.41;5077065;28;45505;-77
2022/01/28 10:09:19;;;;;;;;;35.25;28.50;;;;;9.76;68.70;103535.34;5075178;27;45454;-77
2022/01/28 10:11:48;;;;;;;;;32.75;24.75;;;;;9.66;68.50;103506.09;5075147;27;45512;-78
2022/01/28 10:14:24;;;;;;;;;38.50;29.50;;;;;9.78;67.84;103517.72;5075384;27;45477;-77
2022/01/28 10:16:59;;;;;;;;;31.25;26.00;;;;;9.95;67.68;103540.88;5060115;28;45407;-77
2022/01/28 10:19:26;;;;;;;;;28.75;26.00;;;;;10.01;68.14;103525.06;5074513;28;46332;-77
2022/01/28 10:21:52;;;;;;;;;31.25;27.75;;;;;10.06;68.08;103514.50;5076848;28;45692;-78
2022/01/28 10:24:27;;;;;;;;;38.25;27.50;;;;;10.06;67.45;103502.22;5075018;27;45461;-78
2022/01/28 10:26:55;;;;;;;;;34.00;28.50;;;;;10.31;68.08;103532.50;5075109;28;45495;-77
2022/01/28 10:29:27;;;;;;;;;33.75;23.75;;;;;10.13;67.98;103488.16;5075012;27;45569;-78
2022/01/28 10:31:56;;;;;;;;;32.00;24.75;;;;;10.54;68.42;103537.19;5075013;28;45964;-77
2022/01/28 10:34:43;;;;;;;;;30.50;24.75;;;;;10.66;68.59;103537.28;5076521;28;45420;-78
2022/01/28 10:37:19;;;;;;;;;29.75;28.25;;;;;10.79;67.30;103533.00;5076620;28;45551;-78
2022/01/28 10:39:57;;;;;;;;;38.00;29.50;;;;;10.82;66.88;103539.19;5075287;28;45291;-77
2022/01/28 10:42:25;;;;;;;;;28.25;24.75;;;;;10.89;66.62;103538.41;5074973;28;45583;-78
2022/01/28 10:44:59;;;;;;;;;31.50;29.75;;;;;10.88;67.32;103522.47;5074734;27;45366;-78
2022/01/28 10:47:32;;;;;;;;;31.25;30.00;;;;;10.93;66.08;103511.94;5074974;27;45481;-78
2022/01/28 10:49:59;;;;;;;;;31.75;26.75;;;;;11.04;66.96;103520.88;5074945;27;46424;-78
2022/01/28 10:52:33;;;;;;;;;35.50;28.00;;;;;11.09;65.99;103516.50;5071849;28;45318;-78
2022/01/28 10:55:01;;;;;;;;;31.00;28.25;;;;;11.26;64.98;103528.09;5074868;28;45330;-78
2022/01/28 10:57:30;;;;;;;;;32.00;25.25;;;;;11.29;66.80;103530.75;5072848;28;45442;-78
2022/01/28 10:59:55;;;;;;;;;31.00;26.75;;;;;11.39;65.58;103513.16;5074712;27;46034;-78
2022/01/28 11:02:25;;;;;;;;;39.25;30.75;;;;;11.48;66.28;103510.56;5074299;27;45419;-78
2022/01/28 11:04:53;;;;;;;;;30.00;28.50;;;;;11.62;66.20;103507.09;5074544;27;45436;-78
2022/01/28 11:07:18;;;;;;;;;29.00;24.00;;;;;11.52;65.17;103483.19;5075547;27;45364;-77
2022/01/28 11:09:46;;;;;;;;;40.25;26.50;;;;;11.66;64.60;103499.19;5074467;28;45287;-77
2022/01/28 11:12:12;;;;;;;;;36.75;30.00;;;;;11.44;63.89;103463.72;5072767;28;45393;-78
2022/01/28 11:14:37;;;;;;;;;39.00;33.75;;;;;11.34;65.30;103438.00;5074627;27;45538;-78
2022/01/28 11:17:03;;;;;;;;;38.50;25.00;;;;;11.56;65.00;103458.47;5074054;28;45441;-79
2022/01/28 11:19:33;;;;;;;;;36.00;30.00;;;;;11.71;64.77;103491.25;5074043;27;46090;-78
2022/01/28 11:22:11;;;;;;;;;34.50;32.00;;;;;11.74;65.12;103486.84;5074802;28;45757;-78
2022/01/28 11:24:49;;;;;;;;;37.75;28.75;;;;;11.77;65.13;103500.13;5074119;27;45361;-78
2022/01/28 11:27:30;;;;;;;;;31.50;30.00;;;;;11.78;64.27;103495.69;5073991;27;45413;-78
2022/01/28 11:30:15;;;;;;;;;34.00;31.00;;;;;11.76;64.68;103508.94;5073920;27;45416;-78
2022/01/28 11:33:08;;;;;;;;;34.75;30.25;;;;;11.84;65.23;103498.38;5073857;27;45560;-78
2022/01/28 11:35:38;;;;;;;;;38.25;29.00;;;;;11.89;64.82;103506.41;5071960;27;45526;-78
2022/01/28 11:38:25;;;;;;;;;36.25;31.50;;;;;11.91;64.23;103505.53;5073054;27;45415;-78
2022/01/28 11:40:54;;;;;;;;;36.50;30.00;;;;;11.81;64.36;103483.31;5058194;28;46196;-77
2022/01/28 11:43:26;;;;;;;;;29.75;24.25;;;;;11.93;64.59;103487.81;5073624;28;45437;-77
2022/01/28 11:46:16;;;;;;;;;42.75;32.00;;;;;11.95;64.95;103493.16;5075264;28;45556;-77
2022/01/28 11:48:51;;;;;;;;;33.00;31.00;;;;;12.10;63.94;103517.09;5073535;28;45335;-77
2022/01/28 11:51:21;;;;;;;;;41.25;31.00;;;;;11.98;63.36;103501.13;5069887;28;47766;-77
2022/01/28 11:53:55;;;;;;;;;31.75;28.00;;;;;12.01;63.46;103495.84;5064508;28;45454;-77
2022/01/28 11:56:24;;;;;;;;;31.50;29.50;;;;;12.14;62.91;103512.69;5073424;28;45414;-77
2022/01/28 11:59:01;;;;;;;;;46.50;34.00;;;;;12.03;64.39;103494.09;5074113;28;45480;-77
2022/01/28 12:01:38;;;;;;;;;35.75;31.75;;;;;12.13;63.20;103513.56;5071129;28;48010;-77
2022/01/28 12:04:25;;;;;;;;;33.00;27.75;;;;;12.18;64.04;103514.47;5076069;28;45617;-76
2022/01/28 12:07:06;;;;;;;;;31.00;22.50;;;;;12.19;63.66;103500.31;5074907;28;45339;-77
2022/01/28 12:09:34;;;;;;;;;26.50;26.00;;;;;11.92;61.72;103454.22;5072345;28;45540;-77
2022/01/28 12:12:00;;;;;;;;;29.75;26.25;;;;;12.09;61.62;103487.88;5073030;27;46315;-77
2022/01/28 12:15:03;;;;;;;;;35.25;25.75;;;;;12.16;62.94;103489.69;5071151;28;45773;-78
2022/01/28 12:17:31;;;;;;;;;30.75;28.00;;;;;12.21;62.99;103483.50;5073284;28;45422;-77
2022/01/28 12:20:35;;;;;;;;;40.75;29.50;;;;;12.26;63.29;103481.75;5073123;27;45325;-77
2022/01/28 12:23:00;;;;;;;;;37.50;30.75;;;;;12.29;63.33;103478.19;4998696;28;45386;-77
2022/01/28 12:25:40;;;;;;;;;31.50;26.25;;;;;12.27;62.30;103459.63;4995163;28;45560;-77
2022/01/28 12:28:17;;;;;;;;;32.75;26.50;;;;;12.28;64.33;103455.19;5008642;28;45482;-77
2022/01/28 12:30:46;;;;;;;;;33.00;30.75;;;;;12.16;61.86;103437.47;5007677;28;45574;-77
2022/01/28 12:33:12;;;;;;;;;30.75;27.25;;;;;12.28;64.42;103456.06;5007464;28;45477;-77
2022/01/28 12:35:38;;;;;;;;;36.25;29.75;;;;;12.05;64.61;103400.28;5007369;28;45548;-77
2022/01/28 12:38:05;;;;;;;;;35.50;30.25;;;;;12.24;63.30;103441.03;5011670;28;45491;-77
2022/01/28 12:40:36;;;;;;;;;32.00;30.25;;;;;12.01;62.67;103389.66;5010829;28;45573;-77
2022/01/28 12:43:08;;;;;;;;;35.25;26.00;;;;;12.23;62.66;103404.72;4995923;28;47004;-77
2022/01/28 12:45:34;;;;;;;;;42.00;29.25;;;;;12.30;62.27;103418.91;5007824;28;45681;-75
2022/01/28 12:48:00;;;;;;;;;35.50;26.50;;;;;12.28;62.32;103412.72;5007579;28;45615;-76